createdAt,value
2017-07-02T00:02:11.090Z,18.33
2017-07-02T00:04:40.184Z,24.37
2017-07-02T00:07:09.303Z,15.33
2017-07-02T00:09:38.344Z,19.00
2017-07-02T00:12:07.407Z,18.73
2017-07-02T00:14:37.244Z,25.33
2017-07-02T00:17:06.298Z,19.07
2017-07-02T00:19:35.345Z,25.30
2017-07-02T00:22:04.778Z,14.73
2017-07-02T00:24:33.860Z,19.90
2017-07-02T00:27:02.974Z,23.80
2017-07-02T00:29:32.059Z,17.30
2017-07-02T00:32:01.120Z,19.70
2017-07-02T00:34:30.240Z,23.90
2017-07-02T00:36:59.333Z,13.70
2017-07-02T00:39:29.150Z,18.43
2017-07-02T00:41:58.248Z,20.20
2017-07-02T00:44:27.304Z,13.70
2017-07-02T00:46:57.167Z,22.77
2017-07-02T00:49:26.242Z,20.17
2017-07-02T00:51:55.315Z,28.30
2017-07-02T00:54:24.390Z,13.97
2017-07-02T00:56:53.453Z,21.20
2017-07-02T00:59:22.562Z,19.63
2017-07-02T01:01:51.645Z,21.87
2017-07-02T01:04:20.723Z,17.73
2017-07-02T01:06:49.784Z,20.60
2017-07-02T01:09:18.904Z,14.80
2017-07-02T01:11:47.975Z,17.83
2017-07-02T01:14:18.092Z,23.83
2017-07-02T01:16:47.925Z,20.00
2017-07-02T01:19:16.978Z,22.13
2017-07-02T01:21:46.043Z,22.43
2017-07-02T01:24:15.143Z,22.93
2017-07-02T01:26:44.203Z,18.10
2017-07-02T01:29:13.282Z,17.60
2017-07-02T01:31:43.112Z,18.70
2017-07-02T01:34:12.179Z,16.53
2017-07-02T01:36:42.032Z,19.80
2017-07-02T01:39:11.108Z,21.87
2017-07-02T01:41:40.248Z,18.33
2017-07-02T01:44:09.301Z,17.83
2017-07-02T01:46:38.380Z,20.43
2017-07-02T01:49:08.250Z,16.23
2017-07-02T01:51:37.632Z,14.10
2017-07-02T01:54:06.715Z,20.23
2017-07-02T01:56:35.814Z,21.67
2017-07-02T01:59:04.892Z,22.77
2017-07-02T02:01:52.479Z,19.47
2017-07-02T02:04:21.540Z,20.93
2017-07-02T02:06:50.616Z,19.90
2017-07-02T02:09:19.676Z,22.63
2017-07-02T02:11:48.804Z,19.07
2017-07-02T02:14:18.865Z,20.03
2017-07-02T02:16:47.955Z,28.13
2017-07-02T02:19:17.029Z,24.37
2017-07-02T02:21:46.106Z,33.13
2017-07-02T02:24:15.195Z,26.10
2017-07-02T02:26:45.007Z,24.30
2017-07-02T02:29:14.110Z,28.40
2017-07-02T02:31:43.164Z,25.30
2017-07-02T02:34:12.247Z,23.73
2017-07-02T02:36:41.310Z,22.97
2017-07-02T02:39:10.424Z,26.60
2017-07-02T02:41:39.503Z,21.17
2017-07-02T02:44:08.567Z,22.43
2017-07-02T02:46:38.413Z,29.70
2017-07-02T02:49:07.528Z,26.97
2017-07-02T02:51:36.619Z,26.27
2017-07-02T02:54:05.686Z,22.53
2017-07-02T02:56:35.108Z,24.17
2017-07-02T02:59:04.375Z,28.27
2017-07-02T03:01:33.407Z,30.00
2017-07-02T03:04:02.538Z,31.30
2017-07-02T03:06:31.588Z,24.57
2017-07-02T03:09:00.670Z,27.13
2017-07-02T03:11:29.721Z,30.53
2017-07-02T03:13:58.800Z,26.43
2017-07-02T03:16:28.005Z,26.87
2017-07-02T03:18:57.084Z,30.57
2017-07-02T03:21:26.208Z,35.37
2017-07-02T03:23:55.273Z,29.70
2017-07-02T03:26:24.340Z,30.93
2017-07-02T03:28:54.192Z,28.40
2017-07-02T03:31:23.269Z,30.73
2017-07-02T03:33:52.425Z,33.70
2017-07-02T03:36:21.475Z,36.97
2017-07-02T03:38:50.821Z,32.93
2017-07-02T03:41:19.892Z,30.97
2017-07-02T03:43:49.169Z,27.53
2017-07-02T03:46:18.256Z,31.80
2017-07-02T03:48:47.338Z,27.40
2017-07-02T03:51:16.432Z,26.27
2017-07-02T03:53:45.488Z,37.23
2017-07-02T03:56:14.551Z,25.33
2017-07-02T03:58:43.601Z,28.90
2017-07-02T04:01:12.685Z,29.07
2017-07-02T04:03:41.757Z,22.60
2017-07-02T04:06:10.856Z,25.73
2017-07-02T04:08:39.932Z,28.13
2017-07-02T04:11:08.984Z,26.60
2017-07-02T04:13:38.072Z,23.23
2017-07-02T04:16:07.220Z,33.23
2017-07-02T04:18:36.271Z,23.73
2017-07-02T04:21:05.576Z,26.47
2017-07-02T04:23:34.636Z,28.50
2017-07-02T04:26:03.696Z,24.10
2017-07-02T04:28:32.803Z,26.57
2017-07-02T04:31:01.856Z,20.60
2017-07-02T04:33:32.136Z,21.90
2017-07-02T04:36:01.217Z,20.90
2017-07-02T04:38:30.525Z,25.77
2017-07-02T04:40:59.612Z,27.20
2017-07-02T04:43:28.647Z,27.03
2017-07-02T04:45:57.731Z,22.03
2017-07-02T04:48:27.681Z,24.83
2017-07-02T04:50:56.756Z,17.43
2017-07-02T04:53:25.824Z,17.10
2017-07-02T04:55:54.877Z,27.77
2017-07-02T04:58:23.977Z,17.60
2017-07-02T05:00:53.035Z,17.03
2017-07-02T05:03:22.094Z,17.23
2017-07-02T05:05:51.156Z,16.70
2017-07-02T05:08:20.283Z,18.70
2017-07-02T05:10:49.370Z,20.07
2017-07-02T05:13:18.436Z,21.50
2017-07-02T05:15:47.488Z,15.40
2017-07-02T05:18:16.580Z,16.53
2017-07-02T05:20:45.693Z,19.93
2017-07-02T05:23:14.768Z,19.87
2017-07-02T05:25:44.047Z,20.50
2017-07-02T05:28:13.116Z,23.33
2017-07-02T05:30:42.189Z,21.73
2017-07-02T05:33:11.277Z,20.50
2017-07-02T05:35:40.568Z,24.00
2017-07-02T05:38:09.659Z,22.60
2017-07-02T05:40:38.745Z,23.13
2017-07-02T05:43:07.840Z,16.97
2017-07-02T05:45:36.927Z,26.97
2017-07-02T05:48:05.967Z,27.63
2017-07-02T05:50:35.059Z,18.70
2017-07-02T05:53:04.140Z,19.17
2017-07-02T05:55:33.204Z,14.97
2017-07-02T05:58:02.276Z,18.97
2017-07-02T06:00:31.369Z,20.93
2017-07-02T06:03:00.425Z,18.77
2017-07-02T06:05:29.528Z,17.50
2017-07-02T06:07:58.589Z,14.43
2017-07-02T06:10:27.660Z,20.43
2017-07-02T06:12:56.748Z,14.13
2017-07-02T06:15:25.827Z,14.93
2017-07-02T06:17:54.898Z,15.07
2017-07-02T06:20:24.043Z,16.53
2017-07-02T06:22:53.130Z,15.47
2017-07-02T06:25:22.194Z,17.20
2017-07-02T06:27:51.587Z,13.60
2017-07-02T06:30:20.673Z,19.17
2017-07-02T06:32:49.734Z,18.30
2017-07-02T06:35:18.845Z,11.13
2017-07-02T06:37:47.895Z,16.50
2017-07-02T06:40:17.076Z,17.50
2017-07-02T06:42:46.121Z,15.20
2017-07-02T06:45:15.175Z,13.40
2017-07-02T06:47:44.304Z,15.37
2017-07-02T06:50:13.373Z,12.93
2017-07-02T06:52:42.431Z,14.60
2017-07-02T06:55:11.588Z,14.47
2017-07-02T06:57:40.863Z,13.60
2017-07-02T07:00:09.996Z,11.30
2017-07-02T07:02:39.063Z,12.37
2017-07-02T07:05:08.161Z,11.77
2017-07-02T07:07:37.268Z,19.70
2017-07-02T07:10:06.333Z,13.67
2017-07-02T07:12:35.396Z,16.77
2017-07-02T07:15:04.515Z,22.27
2017-07-02T07:17:33.589Z,13.60
2017-07-02T07:20:02.651Z,12.80
2017-07-02T07:22:31.747Z,16.87
2017-07-02T07:25:00.784Z,18.73
2017-07-02T07:27:29.853Z,19.00
2017-07-02T07:29:58.908Z,13.33
2017-07-02T07:32:27.975Z,12.87
2017-07-02T07:34:57.040Z,15.93
2017-07-02T07:37:26.135Z,16.60
2017-07-02T07:39:55.228Z,14.07
2017-07-02T07:42:24.282Z,14.93
2017-07-02T07:44:53.347Z,12.70
2017-07-02T07:47:22.425Z,14.90
2017-07-02T07:49:51.535Z,11.80
2017-07-02T07:52:20.584Z,22.37
2017-07-02T07:54:49.755Z,17.10
2017-07-02T07:57:18.893Z,16.27
2017-07-02T07:59:48.108Z,18.70
2017-07-02T08:02:17.196Z,10.67
2017-07-02T08:04:46.269Z,13.63
2017-07-02T08:07:15.380Z,14.13
2017-07-02T08:09:44.436Z,15.20
2017-07-02T08:12:13.531Z,15.70
2017-07-02T08:14:42.616Z,14.47
2017-07-02T08:17:11.788Z,19.33
2017-07-02T08:19:40.843Z,16.70
2017-07-02T08:22:09.909Z,13.87
2017-07-02T08:24:39.230Z,20.00
2017-07-02T08:27:08.347Z,14.30
2017-07-02T08:29:37.699Z,16.90
2017-07-02T08:32:06.769Z,16.80
2017-07-02T08:34:35.845Z,12.43
2017-07-02T08:37:04.912Z,17.00
2017-07-02T08:39:34.012Z,17.50
2017-07-02T08:42:03.115Z,17.43
2017-07-02T08:44:32.183Z,15.90
2017-07-02T08:47:01.281Z,23.40
2017-07-02T08:49:30.354Z,18.30
2017-07-02T08:51:59.471Z,20.23
2017-07-02T08:54:28.545Z,19.27
2017-07-02T08:56:57.624Z,27.80
2017-07-02T08:59:26.723Z,21.03
2017-07-02T09:01:55.755Z,20.47
2017-07-02T09:04:24.831Z,18.90
2017-07-02T09:06:53.924Z,21.03
2017-07-02T09:09:22.976Z,20.37
2017-07-02T09:11:52.056Z,20.37
2017-07-02T09:14:21.132Z,21.90
2017-07-02T09:16:50.216Z,30.00
2017-07-02T09:19:19.332Z,25.23
2017-07-02T09:21:48.586Z,24.50
2017-07-02T09:24:17.904Z,26.40
2017-07-02T09:26:46.981Z,23.40
2017-07-02T09:29:16.039Z,23.17
2017-07-02T09:31:45.128Z,26.33
2017-07-02T09:34:14.210Z,25.80
2017-07-02T09:36:43.312Z,33.90
2017-07-02T09:39:12.396Z,32.90
2017-07-02T09:41:41.492Z,30.20
2017-07-02T09:44:10.626Z,28.90
2017-07-02T09:46:39.710Z,26.57
2017-07-02T09:49:08.806Z,24.37
2017-07-02T09:51:37.887Z,24.70
2017-07-02T09:54:07.073Z,22.17
2017-07-02T09:56:36.121Z,23.53
2017-07-02T09:59:05.261Z,23.83
2017-07-02T10:01:34.334Z,30.83
2017-07-02T10:04:03.503Z,32.20
2017-07-02T10:06:32.579Z,34.43
2017-07-02T10:09:01.636Z,32.13
2017-07-02T10:11:30.744Z,29.60
2017-07-02T10:13:59.812Z,36.50
2017-07-02T10:16:28.895Z,33.70
2017-07-02T10:18:57.983Z,40.23
2017-07-02T10:21:28.357Z,35.97
2017-07-02T10:23:57.419Z,35.30
2017-07-02T10:26:26.527Z,37.23
2017-07-02T10:28:55.597Z,33.33
2017-07-02T10:31:24.708Z,34.37
2017-07-02T10:33:55.141Z,36.57
2017-07-02T10:36:24.225Z,39.17
2017-07-02T10:38:53.311Z,34.30
2017-07-02T10:41:22.401Z,38.43
2017-07-02T10:43:51.489Z,36.50
2017-07-02T10:46:20.567Z,40.80
2017-07-02T10:48:49.654Z,36.37
2017-07-02T10:51:18.817Z,33.60
2017-07-02T10:53:47.887Z,34.83
2017-07-02T10:56:16.956Z,32.47
2017-07-02T10:58:46.065Z,34.67
2017-07-02T11:01:15.176Z,31.03
2017-07-02T11:03:44.211Z,32.73
2017-07-02T11:06:13.275Z,33.07
2017-07-02T11:08:42.396Z,35.27
2017-07-02T11:11:11.477Z,35.07
2017-07-02T11:13:40.539Z,35.13
2017-07-02T11:16:09.641Z,34.90
2017-07-02T11:18:38.734Z,42.13
2017-07-02T11:21:07.822Z,35.00
2017-07-02T11:23:36.893Z,35.23
2017-07-02T11:26:05.952Z,36.03
2017-07-02T11:28:35.043Z,38.10
2017-07-02T11:31:04.108Z,39.83
2017-07-02T11:33:33.221Z,36.67
2017-07-02T11:36:02.270Z,41.07
2017-07-02T11:38:31.329Z,35.27
2017-07-02T11:41:00.418Z,36.77
2017-07-02T11:43:29.500Z,33.90
2017-07-02T11:45:58.568Z,35.00
2017-07-02T11:48:27.661Z,34.33
2017-07-02T11:50:56.752Z,34.20
2017-07-02T11:53:25.810Z,34.10
2017-07-02T11:55:54.975Z,35.67
2017-07-02T11:58:24.239Z,33.63
2017-07-02T12:00:53.299Z,33.43
2017-07-02T12:03:22.386Z,33.10
2017-07-02T12:05:51.467Z,32.53
2017-07-02T12:08:20.545Z,34.77
2017-07-02T12:10:49.651Z,32.47
2017-07-02T12:13:18.722Z,38.23
2017-07-02T12:15:48.901Z,32.77
2017-07-02T12:18:18.006Z,35.23
2017-07-02T12:20:48.198Z,32.80
2017-07-02T12:23:17.253Z,32.90
2017-07-02T12:25:46.337Z,33.43
2017-07-02T12:28:15.439Z,33.17
2017-07-02T12:30:44.500Z,31.63
2017-07-02T12:33:13.612Z,35.57
2017-07-02T12:35:42.700Z,37.30
2017-07-02T12:38:11.773Z,39.53
2017-07-02T12:40:40.819Z,40.13
2017-07-02T12:43:10.165Z,46.40
2017-07-02T12:45:39.226Z,39.30
2017-07-02T12:48:08.339Z,40.23
2017-07-02T12:50:37.404Z,37.63
2017-07-02T12:53:06.488Z,36.03
2017-07-02T12:55:35.599Z,32.97
2017-07-02T12:58:04.747Z,31.37
2017-07-02T13:00:33.820Z,30.73
2017-07-02T13:03:02.905Z,31.17
2017-07-02T13:05:31.967Z,30.00
2017-07-02T13:08:01.017Z,25.80
2017-07-02T13:10:30.083Z,25.03
2017-07-02T13:12:59.172Z,24.03
2017-07-02T13:15:28.269Z,21.27
2017-07-02T13:17:57.337Z,22.53
2017-07-02T13:20:26.420Z,23.60
2017-07-02T13:22:55.504Z,22.13
2017-07-02T13:25:24.616Z,20.80
2017-07-02T13:27:53.681Z,23.07
2017-07-02T13:30:22.782Z,22.63
2017-07-02T13:32:51.873Z,21.33
2017-07-02T13:35:20.954Z,19.77
2017-07-02T13:37:50.040Z,18.33
2017-07-02T13:40:19.122Z,19.27
2017-07-02T13:42:48.194Z,19.00
2017-07-02T13:45:17.253Z,18.90
2017-07-02T13:47:46.364Z,16.40
2017-07-02T13:50:15.426Z,17.17
2017-07-02T13:52:44.704Z,16.93
2017-07-02T13:55:13.826Z,16.57
2017-07-02T13:57:42.887Z,16.07
2017-07-02T14:00:12.182Z,14.13
2017-07-02T14:02:41.241Z,15.57
2017-07-02T14:05:10.319Z,15.23
2017-07-02T14:07:39.388Z,13.47
2017-07-02T14:10:08.482Z,14.00
2017-07-02T14:12:37.574Z,13.20
2017-07-02T14:15:06.649Z,13.17
2017-07-02T14:17:35.734Z,11.80
2017-07-02T14:20:04.837Z,12.70
2017-07-02T14:22:33.902Z,11.10
2017-07-02T14:25:03.001Z,9.67
2017-07-02T14:27:32.104Z,10.03
2017-07-02T14:30:01.143Z,9.80
2017-07-02T14:32:30.237Z,8.40
2017-07-02T14:34:59.346Z,9.43
2017-07-02T14:37:28.381Z,8.37
2017-07-02T14:39:57.438Z,9.10
2017-07-02T14:42:26.733Z,7.57
2017-07-02T14:44:55.787Z,8.40
2017-07-02T14:47:24.853Z,8.00
2017-07-02T14:49:53.937Z,7.83
2017-07-02T14:52:23.036Z,8.00
2017-07-02T14:54:52.108Z,8.03
2017-07-02T14:57:21.206Z,6.73
2017-07-02T14:59:50.304Z,8.13
2017-07-02T15:02:19.403Z,7.73
2017-07-02T15:04:48.465Z,7.20
2017-07-02T15:07:17.567Z,8.07
2017-07-02T15:09:46.674Z,6.83
2017-07-02T15:12:15.704Z,7.60
2017-07-02T15:14:44.836Z,8.83
2017-07-02T15:17:14.918Z,7.93
2017-07-02T15:19:44.002Z,9.73
2017-07-02T15:22:13.065Z,9.77
2017-07-02T15:24:42.267Z,11.40
2017-07-02T15:27:11.357Z,11.73
2017-07-02T15:29:40.463Z,10.40
2017-07-02T15:32:09.522Z,8.53
2017-07-02T15:34:38.575Z,8.97
2017-07-02T15:37:07.664Z,7.97
2017-07-02T15:39:36.744Z,7.60
2017-07-02T15:42:05.865Z,7.50
2017-07-02T15:44:34.914Z,6.53
2017-07-02T15:47:03.978Z,7.10
2017-07-02T15:49:33.091Z,5.73
2017-07-02T15:52:02.167Z,5.90
2017-07-02T15:54:31.282Z,6.83
2017-07-02T15:57:00.325Z,6.53
2017-07-02T15:59:29.442Z,9.03
2017-07-02T16:01:58.504Z,5.83
2017-07-02T16:04:27.563Z,5.83
2017-07-02T16:06:56.646Z,3.60
2017-07-02T16:09:25.713Z,4.27
2017-07-02T16:11:54.784Z,3.83
2017-07-02T16:14:24.123Z,7.20
2017-07-02T16:16:53.197Z,3.17
2017-07-02T16:19:22.256Z,2.87
2017-07-02T16:21:51.453Z,5.53
2017-07-02T16:24:20.505Z,3.30
2017-07-02T16:26:49.596Z,4.20
2017-07-02T16:29:18.656Z,4.73
2017-07-02T16:31:47.819Z,6.47
2017-07-02T16:34:17.039Z,5.37
2017-07-02T16:36:46.101Z,3.43
2017-07-02T16:39:15.322Z,3.20
2017-07-02T16:41:44.384Z,3.40
2017-07-02T16:44:13.474Z,3.40
2017-07-02T16:46:42.595Z,3.00
2017-07-02T16:49:11.694Z,3.20
2017-07-02T16:51:40.777Z,4.63
2017-07-02T16:54:09.851Z,8.20
2017-07-02T16:56:38.927Z,3.57
2017-07-02T16:59:08.038Z,3.50
2017-07-02T17:01:37.133Z,4.03
2017-07-02T17:04:06.272Z,5.90
2017-07-02T17:06:35.319Z,5.23
2017-07-02T17:09:04.449Z,5.00
2017-07-02T17:11:33.489Z,3.03
2017-07-02T17:14:02.574Z,5.47
2017-07-02T17:16:31.620Z,3.00
2017-07-02T17:19:00.685Z,6.80
2017-07-02T17:21:29.773Z,5.40
2017-07-02T17:23:59.074Z,4.70
2017-07-02T17:26:28.125Z,4.10
2017-07-02T17:28:57.183Z,5.80
2017-07-02T17:31:26.253Z,3.63
2017-07-02T17:33:55.333Z,3.20
2017-07-02T17:36:24.413Z,2.67
2017-07-02T17:38:53.462Z,3.60
2017-07-02T17:41:22.587Z,2.50
2017-07-02T17:43:51.646Z,8.40
2017-07-02T17:46:20.729Z,3.37
2017-07-02T17:48:49.915Z,3.90
2017-07-02T17:51:19.212Z,3.70
2017-07-02T17:53:48.270Z,5.20
2017-07-02T17:56:17.349Z,4.07
2017-07-02T17:58:46.525Z,3.73
2017-07-02T18:01:15.597Z,4.20
2017-07-02T18:03:44.721Z,3.20
2017-07-02T18:06:13.789Z,3.73
2017-07-02T18:08:42.873Z,2.43
2017-07-02T18:11:11.932Z,3.20
2017-07-02T18:13:41.053Z,3.60
2017-07-02T18:16:10.104Z,3.67
2017-07-02T18:18:39.165Z,5.27
2017-07-02T18:21:08.292Z,2.97
2017-07-02T18:23:37.356Z,2.53
2017-07-02T18:26:06.755Z,6.47
2017-07-02T18:28:35.821Z,3.10
2017-07-02T18:31:04.953Z,5.53
2017-07-02T18:33:34.006Z,6.40
2017-07-02T18:36:03.074Z,4.17
2017-07-02T18:38:32.146Z,6.43
2017-07-02T18:41:01.204Z,2.60
2017-07-02T18:43:30.277Z,3.20
2017-07-02T18:45:59.332Z,3.50
2017-07-02T18:48:28.422Z,3.67
2017-07-02T18:50:57.493Z,2.90
2017-07-02T18:53:26.546Z,6.27
2017-07-02T18:55:55.649Z,2.30
2017-07-02T18:58:24.701Z,4.60
2017-07-02T19:00:53.789Z,3.73
2017-07-02T19:03:22.847Z,3.80
2017-07-02T19:05:52.044Z,3.33
2017-07-02T19:08:21.101Z,7.43
2017-07-02T19:10:50.935Z,4.43
2017-07-02T19:13:20.785Z,7.87
2017-07-02T19:15:49.863Z,6.20
2017-07-02T19:18:18.956Z,4.73
2017-07-02T19:20:48.050Z,3.60
2017-07-02T19:23:17.126Z,2.87
2017-07-02T19:25:46.966Z,3.67
2017-07-02T19:28:16.041Z,3.33
2017-07-02T19:30:45.111Z,4.90
2017-07-02T19:33:14.969Z,4.00
2017-07-02T19:35:44.891Z,5.77
2017-07-02T19:38:13.980Z,4.20
2017-07-02T19:40:43.063Z,4.27
2017-07-02T19:43:12.171Z,4.10
2017-07-02T19:45:41.287Z,11.80
2017-07-02T19:48:10.370Z,3.87
2017-07-02T19:50:39.436Z,6.70
2017-07-02T19:53:08.838Z,6.67
2017-07-02T19:55:37.902Z,5.00
2017-07-02T19:58:06.993Z,3.13
2017-07-02T20:00:36.048Z,4.10
2017-07-02T20:03:05.133Z,7.43
2017-07-02T20:05:34.244Z,4.37
2017-07-02T20:08:03.322Z,5.90
2017-07-02T20:10:32.412Z,3.57
2017-07-02T20:13:01.482Z,2.13
2017-07-02T20:15:30.539Z,10.13
2017-07-02T20:17:59.616Z,10.60
2017-07-02T20:20:28.676Z,5.10
2017-07-02T20:22:58.529Z,10.07
2017-07-02T20:25:27.608Z,5.20
2017-07-02T20:27:56.675Z,4.70
2017-07-02T20:30:26.590Z,4.47
2017-07-02T20:32:55.650Z,5.00
2017-07-02T20:35:24.714Z,3.07
2017-07-02T20:37:53.783Z,6.40
2017-07-02T20:40:23.622Z,4.00
2017-07-02T20:42:52.700Z,6.07
2017-07-02T20:45:21.831Z,5.30
2017-07-02T20:47:50.900Z,4.30
2017-07-02T20:50:20.704Z,5.73
2017-07-02T20:52:49.797Z,4.20
2017-07-02T20:55:19.624Z,6.50
2017-07-02T20:57:48.747Z,4.57
2017-07-02T21:00:17.843Z,5.33
2017-07-02T21:02:46.883Z,6.37
2017-07-02T21:05:16.770Z,4.33
2017-07-02T21:07:45.809Z,5.00
2017-07-02T21:10:14.892Z,4.70
2017-07-02T21:12:43.950Z,6.83
2017-07-02T21:15:13.066Z,6.43
2017-07-02T21:17:42.943Z,4.97
2017-07-02T21:20:12.018Z,4.60
2017-07-02T21:22:41.121Z,7.33
2017-07-02T21:25:11.239Z,6.53
2017-07-02T21:27:40.308Z,5.20
2017-07-02T21:30:09.394Z,4.30
2017-07-02T21:32:38.461Z,9.67
2017-07-02T21:35:07.588Z,6.13
2017-07-02T21:37:37.604Z,7.77
2017-07-02T21:40:07.473Z,11.47
2017-07-02T21:42:36.609Z,12.10
2017-07-02T21:45:06.680Z,7.40
2017-07-02T21:47:35.758Z,4.73
2017-07-02T21:50:04.837Z,10.40
2017-07-02T21:52:33.940Z,3.33
2017-07-02T21:55:02.988Z,6.00
2017-07-02T21:57:32.068Z,7.10
2017-07-02T22:00:01.121Z,6.87
2017-07-02T22:02:30.498Z,4.90
2017-07-02T22:04:59.560Z,5.83
2017-07-02T22:07:28.651Z,3.77
2017-07-02T22:09:58.067Z,3.90
2017-07-02T22:12:27.133Z,8.00
2017-07-02T22:14:56.210Z,7.73
2017-07-02T22:17:25.269Z,4.83
2017-07-02T22:19:54.352Z,3.70
2017-07-02T22:22:23.434Z,5.30
2017-07-02T22:24:52.468Z,7.00
2017-07-02T22:27:21.543Z,9.60
2017-07-02T22:29:50.644Z,7.73
2017-07-02T22:32:20.765Z,5.73
2017-07-02T22:34:49.857Z,2.70
2017-07-02T22:37:18.946Z,7.00
2017-07-02T22:39:48.014Z,9.07
2017-07-02T22:42:17.268Z,4.63
2017-07-02T22:44:46.379Z,10.33
2017-07-02T22:47:15.457Z,8.97
2017-07-02T22:49:44.505Z,6.90
2017-07-02T22:52:13.591Z,6.23
2017-07-02T22:54:42.920Z,15.67
2017-07-02T22:57:12.021Z,6.47
2017-07-02T22:59:41.065Z,7.33
2017-07-02T23:02:10.152Z,6.40
2017-07-02T23:04:39.440Z,6.67
2017-07-02T23:07:08.560Z,6.17
2017-07-02T23:09:37.655Z,8.67
2017-07-02T23:12:06.705Z,7.73
2017-07-02T23:14:35.819Z,5.63
2017-07-02T23:17:04.894Z,6.60
2017-07-02T23:19:34.161Z,6.33
2017-07-02T23:22:03.230Z,6.77
2017-07-02T23:24:32.303Z,9.13
2017-07-02T23:27:01.371Z,5.40
2017-07-02T23:29:30.437Z,6.87
2017-07-02T23:31:59.533Z,8.50
2017-07-02T23:34:28.597Z,4.63
2017-07-02T23:36:57.900Z,5.50
2017-07-02T23:39:26.988Z,6.37
2017-07-02T23:41:56.067Z,10.87
2017-07-02T23:44:25.133Z,7.07
2017-07-02T23:46:54.210Z,6.17
2017-07-02T23:49:23.263Z,5.77
2017-07-02T23:51:52.383Z,8.57
2017-07-02T23:54:21.441Z,14.70
2017-07-02T23:56:50.522Z,5.70
2017-07-02T23:59:19.548Z,5.93
